Joy — V2EI9 — position and weather

sailwx.info

Track history (hours):
 
Tides and Currents Weather Stations Pressure Air Temp Water Temp Dewpoint Dewpoint Depression Visibility Wind Speed Wind Dir Waves Ship Positions

Joy

Last reported at 2015-Feb-01 02:32 UTC. Time now 2015-Feb-01 13:14 UTC.
Position N 52°32' W 009°49'.

Length 105 m; draft 4 m.

Type: Cargo ship. MMSI: 305444000.

Date/timePositionNaut miles runAvg speedWind from/ knotsBaromVisibWave heightAir tempDewpointWater temp
2015-Feb-01 02:32N 52°32' W 009°49'9 9.4
2015-Feb-01 01:33N 52°27' W 010°02'8 8.1
2015-Feb-01 00:33N 52°23' W 010°12'8 8.1
2015-Jan-31 23:33N 52°18' W 010°23'8 7.8
2015-Jan-31 22:33N 52°13' W 010°33'7 7.2
2015-Jan-31 21:33N 52°08' W 010°41'10 4.8
2015-Jan-31 19:33N 51°58' W 010°43'6 5.2
2015-Jan-31 18:23N 51°53' W 010°40'5 5.4
2015-Jan-31 17:33N 51°48' W 010°38'15 5.1
2015-Jan-31 14:34N 51°35' W 010°27'5 5.4
2015-Jan-31 13:33N 51°31' W 010°21'6 6.2
2015-Jan-31 12:33N 51°28' W 010°12'7 6.6
2015-Jan-31 11:33N 51°25' W 010°03'8 8.1
2015-Jan-31 10:34N 51°21' W 009°51'9 8.9
2015-Jan-31 09:34N 51°20' W 009°37'1110.8
2015-Jan-31 08:33N 51°23' W 009°21'1111.1
2015-Jan-31 07:33N 51°27' W 009°04'1110.6
2015-Jan-31 06:33N 51°30' W 008°48'1110.8
2015-Jan-31 05:33N 51°34' W 008°31'1110.7
2015-Jan-31 04:33N 51°37' W 008°15'1010.5
2015-Jan-31 03:33N 51°40' W 007°59'1010.0
2015-Jan-31 02:33N 51°44' W 007°44'10 9.7
2015-Jan-31 01:34N 51°47' W 007°29'10 9.9
2015-Jan-31 00:34N 51°50' W 007°14'10 9.9
2015-Jan-30 23:33N 51°53' W 006°59'1010.2
2015-Jan-30 22:34N 51°56' W 006°43'1111.0
2015-Jan-30 21:33N 51°60' W 006°26'1111.4
2015-Jan-30 20:33N 52°07' W 006°12'1110.8
2015-Jan-30 19:33N 52°17' W 006°04'1110.8
2015-Jan-30 18:33N 52°27' W 005°58'1110.2
2015-Jan-30 17:31N 52°37' W 005°52'10211.3
2015-Jan-30 08:33N 54°17' W 005°19'1211.8
2015-Jan-30 07:34N 54°28' W 005°18'1212.2
2015-Jan-30 06:34N 54°41' W 005°18'1313.3
2015-Jan-30 05:34N 54°52' W 005°31'1713.6
2015-Jan-30 04:18N 55°06' W 005°48'1014.2
2015-Jan-30 03:33N 55°14' W 005°59'1212.4
2015-Jan-30 02:33N 55°22' W 006°15'1211.5
2015-Jan-30 01:33N 55°26' W 006°35'1210.0
2015-Jan-30 00:20N 55°29' W 006°56'7 0.5
2015-Jan-29 09:31N 55°29' W 007°07'6 5.8
2015-Jan-29 08:33N 55°29' W 006°58'6 5.8
2015-Jan-29 07:33N 55°28' W 006°47'5 5.4
2015-Jan-29 06:33N 55°27' W 006°38'5 4.7
2015-Jan-29 05:33N 55°27' W 006°30'4 4.3
2015-Jan-29 04:33N 55°27' W 006°22'3 3.4
2015-Jan-29 03:33N 55°26' W 006°16'3 2.7
2015-Jan-29 02:33N 55°26' W 006°12'3 2.7
2015-Jan-29 01:33N 55°25' W 006°07'3 2.7
2015-Jan-29 00:33N 55°24' W 006°03'4 3.5
2015-Jan-28 23:33N 55°22' W 005°58'4 4.2
2015-Jan-28 22:33N 55°19' W 005°54'5 5.2
2015-Jan-28 21:33N 55°14' W 005°50'1210.2
2015-Jan-28 20:25N 55°03' W 005°42'1011.3
2015-Jan-28 19:31N 54°54' W 005°35'1111.9
2015-Jan-28 18:33N 54°43' W 005°41'9 4.0
2015-Jan-28 16:18N 54°37' W 005°54'0 0.0
2015-Jan-28 15:33N 54°37' W 005°54'0 0.0
2015-Jan-28 02:06N 54°37' W 005°54'0 0.0
2015-Jan-27 08:18N 54°37' W 005°54'0 0.0
2015-Jan-27 07:21N 54°37' W 005°54'0 0.0
2015-Jan-27 05:32N 54°37' W 005°54'0 0.0
2015-Jan-27 04:23N 54°37' W 005°54'3 3.8
2015-Jan-27 03:33N 54°40' W 005°51'10 9.8
2015-Jan-27 02:34N 54°43' W 005°35'8 7.8
2015-Jan-27 01:34N 54°39' W 005°23'7 7.2
2015-Jan-27 00:33N 54°33' W 005°17'7 7.2
2015-Jan-26 23:34N 54°26' W 005°17'8 7.8
2015-Jan-26 22:34N 54°18' W 005°18'286 6.8
2015-Jan-25 04:22N 50°18' W 001°05'1213.7
2015-Jan-25 03:32N 50°23' W 000°49'1412.0
2015-Jan-25 02:24N 50°26' W 000°29'2010.2
2015-Jan-25 00:28N 50°31' E 000°01'9 9.0
2015-Jan-24 23:25N 50°34' E 000°16'8 9.6
2015-Jan-24 22:33N 50°36' E 000°28'1111.1
2015-Jan-24 21:33N 50°40' E 000°44'1412.8
2015-Jan-24 20:29N 50°48' E 001°02'1212.8
2015-Jan-24 19:33N 50°55' E 001°17'1212.0
2015-Jan-24 18:33N 51°03' E 001°31'10 9.9
2015-Jan-24 17:33N 51°11' E 001°42'9 8.9
2015-Jan-24 16:34N 51°17' E 001°51'9 8.5
2015-Jan-24 15:33N 51°25' E 001°58'9 9.3
2015-Jan-24 14:33N 51°32' E 002°07'1010.3
2015-Jan-24 13:33N 51°40' E 002°18'56 9.4
2015-Jan-24 07:33N 52°04' E 003°40'9 9.3
2015-Jan-24 06:33N 52°03' E 003°55'9 9.1
2015-Jan-24 05:33N 51°58' E 004°08'9 8.6
2015-Jan-24 04:33N 51°54' E 004°19'3 2.7
2015-Jan-24 03:33N 51°54' E 004°24'0 0.0
2015-Jan-24 02:33N 51°54' E 004°24'0 0.0
2015-Jan-24 01:33N 51°54' E 004°24'0 0.0
2015-Jan-24 00:33N 51°54' E 004°24'0 0.0
2015-Jan-23 23:33N 51°54' E 004°24'0 0.0
2015-Jan-23 22:33N 51°54' E 004°24'0 0.0
2015-Jan-23 21:33N 51°54' E 004°24'0 0.0
2015-Jan-23 20:33N 51°54' E 004°24'0 0.0
2015-Jan-23 19:33N 51°54' E 004°24'0 0.0
2015-Jan-23 18:33N 51°54' E 004°24'0 0.0
2015-Jan-23 17:33N 51°54' E 004°24'0 0.0
2015-Jan-23 16:33N 51°54' E 004°24'0 0.0
2015-Jan-23 15:33N 51°54' E 004°24'0 0.0
2015-Jan-23 14:33N 51°54' E 004°24'0 0.0
2015-Jan-23 13:33N 51°54' E 004°24'0 0.0
2015-Jan-23 12:33N 51°54' E 004°24'0 0.0
2015-Jan-23 11:33N 51°54' E 004°24'0 0.0
2015-Jan-23 10:33N 51°54' E 004°24'0 0.0
2015-Jan-23 09:33N 51°54' E 004°24'0 0.0
2015-Jan-23 08:33N 51°54' E 004°24'0 0.0
2015-Jan-23 07:33N 51°54' E 004°24'0 0.0
2015-Jan-23 06:33N 51°54' E 004°24'0 0.0
2015-Jan-23 05:33N 51°54' E 004°24'0 0.0
2015-Jan-23 04:33N 51°54' E 004°24'0 0.0
2015-Jan-23 03:33N 51°54' E 004°24'0 0.0
2015-Jan-23 02:33N 51°54' E 004°24'0 0.0
2015-Jan-23 01:33N 51°54' E 004°24'0 0.0
2015-Jan-23 00:33N 51°54' E 004°24'0 0.0
2015-Jan-22 23:33N 51°54' E 004°24'0 0.0
2015-Jan-22 22:33N 51°54' E 004°24'0 0.0
2015-Jan-22 21:33N 51°54' E 004°24'0 0.0
2015-Jan-22 20:33N 51°54' E 004°24'0 0.0
2015-Jan-22 19:33N 51°54' E 004°24'0 0.0
2015-Jan-22 18:33N 51°54' E 004°24'0 0.0
2015-Jan-22 17:33N 51°54' E 004°24'0 0.0
2015-Jan-22 16:33N 51°54' E 004°24'0 0.0
2015-Jan-22 15:33N 51°54' E 004°24'0 0.0
2015-Jan-22 14:33N 51°54' E 004°24'0 0.0
2015-Jan-22 13:33N 51°54' E 004°24'0 0.0
2015-Jan-22 12:33N 51°54' E 004°24'0 0.0
2015-Jan-22 11:33N 51°54' E 004°24'0 0.0
2015-Jan-22 10:33N 51°54' E 004°24'0 0.0
2015-Jan-22 09:33N 51°54' E 004°24'0 0.0
2015-Jan-22 08:33N 51°54' E 004°24'0 0.0
2015-Jan-22 07:33N 51°54' E 004°24'0 0.0
2015-Jan-22 06:33N 51°54' E 004°24'0 0.0
2015-Jan-22 05:33N 51°54' E 004°24'0 0.0
2015-Jan-22 04:33N 51°54' E 004°24'0 0.0
2015-Jan-22 03:33N 51°54' E 004°24'0 0.0
2015-Jan-22 02:33N 51°54' E 004°24'  
Track history (hours):
 
Tides and Currents Weather Stations Pressure Air Temp Water Temp Dewpoint Dewpoint Depression Visibility Wind Speed Wind Dir Waves Ship Positions

Joy

Last reported at 2015-Feb-01 02:32 UTC. Time now 2015-Feb-01 13:14 UTC.
Position N 52°32' W 009°49'.

Length 105 m; draft 4 m.

Type: Cargo ship. MMSI: 305444000.

Date/timePositionNaut miles runAvg speedWind from/ knotsBaromVisibWave heightAir tempDewpointWater temp
2015-Feb-01 02:32N 52°32' W 009°49'9 9.4
2015-Feb-01 01:33N 52°27' W 010°02'8 8.1
2015-Feb-01 00:33N 52°23' W 010°12'8 8.1
2015-Jan-31 23:33N 52°18' W 010°23'8 7.8
2015-Jan-31 22:33N 52°13' W 010°33'7 7.2
2015-Jan-31 21:33N 52°08' W 010°41'10 4.8
2015-Jan-31 19:33N 51°58' W 010°43'6 5.2
2015-Jan-31 18:23N 51°53' W 010°40'5 5.4
2015-Jan-31 17:33N 51°48' W 010°38'15 5.1
2015-Jan-31 14:34N 51°35' W 010°27'5 5.4
2015-Jan-31 13:33N 51°31' W 010°21'6 6.2
2015-Jan-31 12:33N 51°28' W 010°12'7 6.6
2015-Jan-31 11:33N 51°25' W 010°03'8 8.1
2015-Jan-31 10:34N 51°21' W 009°51'9 8.9
2015-Jan-31 09:34N 51°20' W 009°37'1110.8
2015-Jan-31 08:33N 51°23' W 009°21'1111.1
2015-Jan-31 07:33N 51°27' W 009°04'1110.6
2015-Jan-31 06:33N 51°30' W 008°48'1110.8
2015-Jan-31 05:33N 51°34' W 008°31'1110.7
2015-Jan-31 04:33N 51°37' W 008°15'1010.5
2015-Jan-31 03:33N 51°40' W 007°59'1010.0
2015-Jan-31 02:33N 51°44' W 007°44'10 9.7
2015-Jan-31 01:34N 51°47' W 007°29'10 9.9
2015-Jan-31 00:34N 51°50' W 007°14'10 9.9
2015-Jan-30 23:33N 51°53' W 006°59'1010.2
2015-Jan-30 22:34N 51°56' W 006°43'1111.0
2015-Jan-30 21:33N 51°60' W 006°26'1111.4
2015-Jan-30 20:33N 52°07' W 006°12'1110.8
2015-Jan-30 19:33N 52°17' W 006°04'1110.8
2015-Jan-30 18:33N 52°27' W 005°58'1110.2
2015-Jan-30 17:31N 52°37' W 005°52'10211.3
2015-Jan-30 08:33N 54°17' W 005°19'1211.8
2015-Jan-30 07:34N 54°28' W 005°18'1212.2
2015-Jan-30 06:34N 54°41' W 005°18'1313.3
2015-Jan-30 05:34N 54°52' W 005°31'1713.6
2015-Jan-30 04:18N 55°06' W 005°48'1014.2
2015-Jan-30 03:33N 55°14' W 005°59'1212.4
2015-Jan-30 02:33N 55°22' W 006°15'1211.5
2015-Jan-30 01:33N 55°26' W 006°35'1210.0
2015-Jan-30 00:20N 55°29' W 006°56'7 0.5
2015-Jan-29 09:31N 55°29' W 007°07'6 5.8
2015-Jan-29 08:33N 55°29' W 006°58'6 5.8
2015-Jan-29 07:33N 55°28' W 006°47'5 5.4
2015-Jan-29 06:33N 55°27' W 006°38'5 4.7
2015-Jan-29 05:33N 55°27' W 006°30'4 4.3
2015-Jan-29 04:33N 55°27' W 006°22'3 3.4
2015-Jan-29 03:33N 55°26' W 006°16'3 2.7
2015-Jan-29 02:33N 55°26' W 006°12'3 2.7
2015-Jan-29 01:33N 55°25' W 006°07'3 2.7
2015-Jan-29 00:33N 55°24' W 006°03'4 3.5
2015-Jan-28 23:33N 55°22' W 005°58'4 4.2
2015-Jan-28 22:33N 55°19' W 005°54'5 5.2
2015-Jan-28 21:33N 55°14' W 005°50'1210.2
2015-Jan-28 20:25N 55°03' W 005°42'1011.3
2015-Jan-28 19:31N 54°54' W 005°35'1111.9
2015-Jan-28 18:33N 54°43' W 005°41'9 4.0
2015-Jan-28 16:18N 54°37' W 005°54'0 0.0
2015-Jan-28 15:33N 54°37' W 005°54'0 0.0
2015-Jan-28 02:06N 54°37' W 005°54'0 0.0
2015-Jan-27 08:18N 54°37' W 005°54'0 0.0
2015-Jan-27 07:21N 54°37' W 005°54'0 0.0
2015-Jan-27 05:32N 54°37' W 005°54'0 0.0
2015-Jan-27 04:23N 54°37' W 005°54'3 3.8
2015-Jan-27 03:33N 54°40' W 005°51'10 9.8
2015-Jan-27 02:34N 54°43' W 005°35'8 7.8
2015-Jan-27 01:34N 54°39' W 005°23'7 7.2
2015-Jan-27 00:33N 54°33' W 005°17'7 7.2
2015-Jan-26 23:34N 54°26' W 005°17'8 7.8
2015-Jan-26 22:34N 54°18' W 005°18'286 6.8
2015-Jan-25 04:22N 50°18' W 001°05'1213.7
2015-Jan-25 03:32N 50°23' W 000°49'1412.0
2015-Jan-25 02:24N 50°26' W 000°29'2010.2
2015-Jan-25 00:28N 50°31' E 000°01'9 9.0
2015-Jan-24 23:25N 50°34' E 000°16'8 9.6
2015-Jan-24 22:33N 50°36' E 000°28'1111.1
2015-Jan-24 21:33N 50°40' E 000°44'1412.8
2015-Jan-24 20:29N 50°48' E 001°02'1212.8
2015-Jan-24 19:33N 50°55' E 001°17'1212.0
2015-Jan-24 18:33N 51°03' E 001°31'10 9.9
2015-Jan-24 17:33N 51°11' E 001°42'9 8.9
2015-Jan-24 16:34N 51°17' E 001°51'9 8.5
2015-Jan-24 15:33N 51°25' E 001°58'9 9.3
2015-Jan-24 14:33N 51°32' E 002°07'1010.3
2015-Jan-24 13:33N 51°40' E 002°18'56 9.4
2015-Jan-24 07:33N 52°04' E 003°40'9 9.3
2015-Jan-24 06:33N 52°03' E 003°55'9 9.1
2015-Jan-24 05:33N 51°58' E 004°08'9 8.6
2015-Jan-24 04:33N 51°54' E 004°19'3 2.7
2015-Jan-24 03:33N 51°54' E 004°24'0 0.0
2015-Jan-24 02:33N 51°54' E 004°24'0 0.0
2015-Jan-24 01:33N 51°54' E 004°24'0 0.0
2015-Jan-24 00:33N 51°54' E 004°24'0 0.0
2015-Jan-23 23:33N 51°54' E 004°24'0 0.0
2015-Jan-23 22:33N 51°54' E 004°24'0 0.0
2015-Jan-23 21:33N 51°54' E 004°24'0 0.0
2015-Jan-23 20:33N 51°54' E 004°24'0 0.0
2015-Jan-23 19:33N 51°54' E 004°24'0 0.0
2015-Jan-23 18:33N 51°54' E 004°24'0 0.0
2015-Jan-23 17:33N 51°54' E 004°24'0 0.0
2015-Jan-23 16:33N 51°54' E 004°24'0 0.0
2015-Jan-23 15:33N 51°54' E 004°24'0 0.0
2015-Jan-23 14:33N 51°54' E 004°24'0 0.0
2015-Jan-23 13:33N 51°54' E 004°24'0 0.0
2015-Jan-23 12:33N 51°54' E 004°24'0 0.0
2015-Jan-23 11:33N 51°54' E 004°24'0 0.0
2015-Jan-23 10:33N 51°54' E 004°24'0 0.0
2015-Jan-23 09:33N 51°54' E 004°24'0 0.0
2015-Jan-23 08:33N 51°54' E 004°24'0 0.0
2015-Jan-23 07:33N 51°54' E 004°24'0 0.0
2015-Jan-23 06:33N 51°54' E 004°24'0 0.0
2015-Jan-23 05:33N 51°54' E 004°24'0 0.0
2015-Jan-23 04:33N 51°54' E 004°24'0 0.0
2015-Jan-23 03:33N 51°54' E 004°24'0 0.0
2015-Jan-23 02:33N 51°54' E 004°24'0 0.0
2015-Jan-23 01:33N 51°54' E 004°24'0 0.0
2015-Jan-23 00:33N 51°54' E 004°24'0 0.0
2015-Jan-22 23:33N 51°54' E 004°24'0 0.0
2015-Jan-22 22:33N 51°54' E 004°24'0 0.0
2015-Jan-22 21:33N 51°54' E 004°24'0 0.0
2015-Jan-22 20:33N 51°54' E 004°24'0 0.0
2015-Jan-22 19:33N 51°54' E 004°24'0 0.0
2015-Jan-22 18:33N 51°54' E 004°24'0 0.0
2015-Jan-22 17:33N 51°54' E 004°24'0 0.0
2015-Jan-22 16:33N 51°54' E 004°24'0 0.0
2015-Jan-22 15:33N 51°54' E 004°24'0 0.0
2015-Jan-22 14:33N 51°54' E 004°24'0 0.0
2015-Jan-22 13:33N 51°54' E 004°24'0 0.0
2015-Jan-22 12:33N 51°54' E 004°24'0 0.0
2015-Jan-22 11:33N 51°54' E 004°24'0 0.0
2015-Jan-22 10:33N 51°54' E 004°24'0 0.0
2015-Jan-22 09:33N 51°54' E 004°24'0 0.0
2015-Jan-22 08:33N 51°54' E 004°24'0 0.0
2015-Jan-22 07:33N 51°54' E 004°24'0 0.0
2015-Jan-22 06:33N 51°54' E 004°24'0 0.0
2015-Jan-22 05:33N 51°54' E 004°24'0 0.0
2015-Jan-22 04:33N 51°54' E 004°24'0 0.0
2015-Jan-22 03:33N 51°54' E 004°24'0 0.0
2015-Jan-22 02:33N 51°54' E 004°24'  

Dump ship's entire track history